Time;durP1;ratioP1;P1;durP2;ratioP2;P2;SDS_P1;SDS_P2;PMS_P1;PMS_P2;Temp;Humidity;BMP_temperature;BMP_pressure;BME280_temperature;BME280_humidity;BME280_pressure;Samples;Min_cycle;Max_cycle;Signal;HPM_P1;HPM_P2
2023/03/27 00:01:17;;;;;;;4.45;3.10;;;;;;;;;;5025562;28;20118;-66
2023/03/27 00:03:42;;;;;;;4.03;2.67;;;;;;;;;;5027966;28;20694;-68
2023/03/27 00:06:08;;;;;;;4.32;2.80;;;;;;;;;;5028080;28;20298;-65
2023/03/27 00:08:35;;;;;;;3.80;2.75;;;;;;;;;;5029605;28;20048;-66
2023/03/27 00:11:00;;;;;;;4.90;3.00;;;;;;;;;;5022711;28;20040;-68
2023/03/27 00:13:26;;;;;;;5.00;3.17;;;;;;;;;;5027220;28;20075;-67
2023/03/27 00:15:54;;;;;;;3.70;2.65;;;;;;;;;;5027295;28;20047;-66
2023/03/27 00:18:20;;;;;;;4.57;3.00;;;;;;;;;;5026479;28;20049;-66
2023/03/27 00:20:45;;;;;;;3.55;2.63;;;;;;;;;;5027293;28;20827;-65
2023/03/27 00:23:11;;;;;;;4.13;2.92;;;;;;;;;;5026306;28;20095;-65
2023/03/27 00:25:37;;;;;;;4.45;2.90;;;;;;;;;;5025958;28;20043;-65
2023/03/27 00:28:02;;;;;;;3.65;3.10;;;;;;;;;;5026464;28;20036;-67
2023/03/27 00:30:28;;;;;;;4.88;3.17;;;;;;;;;;5026395;28;20780;-65
2023/03/27 00:32:57;;;;;;;3.70;2.75;;;;;;;;;;5003096;28;20307;-66
2023/03/27 00:35:22;;;;;;;4.70;3.30;;;;;;;;;;5026105;28;20044;-66
2023/03/27 00:37:49;;;;;;;4.32;2.80;;;;;;;;;;5027538;28;20045;-65
2023/03/27 00:40:17;;;;;;;5.43;3.22;;;;;;;;;;5024938;28;20040;-67
2023/03/27 00:42:47;;;;;;;4.80;2.88;;;;;;;;;;5027153;28;20298;-65
2023/03/27 00:45:19;;;;;;;5.17;3.10;;;;;;;;;;5027143;28;20044;-65
2023/03/27 00:47:45;;;;;;;4.32;2.88;;;;;;;;;;5027005;28;20215;-67
2023/03/27 00:50:11;;;;;;;4.07;3.20;;;;;;;;;;5004058;28;20473;-65
2023/03/27 00:52:37;;;;;;;4.60;2.97;;;;;;;;;;4998997;28;20049;-67
2023/03/27 00:55:04;;;;;;;4.88;3.22;;;;;;;;;;5007585;28;20301;-65
2023/03/27 00:57:29;;;;;;;4.93;3.03;;;;;;;;;;5026248;28;20801;-66
2023/03/27 00:59:55;;;;;;;4.90;3.22;;;;;;;;;;5006627;28;20029;-66
2023/03/27 01:02:20;;;;;;;5.78;3.45;;;;;;;;;;5029305;28;20132;-67
2023/03/27 01:04:45;;;;;;;4.90;3.17;;;;;;;;;;5027189;28;20503;-65
2023/03/27 01:07:11;;;;;;;4.45;3.03;;;;;;;;;;5004211;28;21713;-66
2023/03/27 01:09:36;;;;;;;4.47;3.08;;;;;;;;;;5022612;28;20045;-64
2023/03/27 01:12:07;;;;;;;5.20;3.42;;;;;;;;;;5004516;28;20024;-66
2023/03/27 01:14:38;;;;;;;5.57;3.35;;;;;;;;;;5028815;28;20177;-64
2023/03/27 01:17:12;;;;;;;4.90;3.28;;;;;;;;;;5029552;28;20063;-64
2023/03/27 01:19:56;;;;;;;5.03;3.28;;;;;;;;;;5028469;28;20055;-65
2023/03/27 01:22:40;;;;;;;5.53;3.40;;;;;;;;;;5026971;28;20133;-65
2023/03/27 01:25:09;;;;;;;4.72;3.10;;;;;;;;;;5025568;28;20173;-66
2023/03/27 01:27:40;;;;;;;4.72;3.00;;;;;;;;;;5026901;28;20201;-68
2023/03/27 01:30:05;;;;;;;4.82;2.83;;;;;;;;;;4997726;28;20045;-65
2023/03/27 01:32:57;;;;;;;4.88;3.25;;;;;;;;;;5023753;28;20041;-66
2023/03/27 01:35:41;;;;;;;4.47;3.28;;;;;;;;;;4993511;28;20059;-65
2023/03/27 01:38:22;;;;;;;4.88;3.67;;;;;;;;;;5027557;28;20055;-67
2023/03/27 01:40:52;;;;;;;4.70;3.17;;;;;;;;;;5028305;28;20056;-66
2023/03/27 01:43:17;;;;;;;;;;;;;;;;;;5026905;28;20050;-67
2023/03/27 01:45:51;;;;;;;4.60;3.00;;;;;;;;;;5026865;28;19920;-67
2023/03/27 01:48:18;;;;;;;4.13;3.05;;;;;;;;;;5027735;28;20041;-64
2023/03/27 01:50:47;;;;;;;4.72;3.28;;;;;;;;;;5029740;28;20116;-67
2023/03/27 01:53:21;;;;;;;3.97;2.90;;;;;;;;;;5005637;28;21747;-65
2023/03/27 01:55:48;;;;;;;5.05;3.35;;;;;;;;;;5029527;28;20039;-65
2023/03/27 01:58:15;;;;;;;5.03;3.35;;;;;;;;;;5006676;28;20036;-64
2023/03/27 02:00:41;;;;;;;5.13;3.58;;;;;;;;;;5012003;28;20174;-69
2023/03/27 02:03:30;;;;;;;4.90;3.38;;;;;;;;;;5005803;28;20724;-65
2023/03/27 02:05:57;;;;;;;4.13;3.03;;;;;;;;;;5004291;28;20123;-67
2023/03/27 02:08:28;;;;;;;5.53;3.65;;;;;;;;;;5031252;28;20169;-67
2023/03/27 02:10:54;;;;;;;4.43;3.17;;;;;;;;;;5030422;28;20382;-67
2023/03/27 02:13:27;;;;;;;4.18;3.10;;;;;;;;;;5008912;28;20165;-64
2023/03/27 02:15:53;;;;;;;5.00;3.10;;;;;;;;;;5030427;28;20041;-63
2023/03/27 02:18:21;;;;;;;4.40;2.85;;;;;;;;;;5002144;28;20052;-66
2023/03/27 02:20:46;;;;;;;5.32;3.00;;;;;;;;;;5028716;28;20126;-65
2023/03/27 02:23:12;;;;;;;4.70;3.20;;;;;;;;;;5031601;28;20032;-65
2023/03/27 02:25:38;;;;;;;4.90;3.45;;;;;;;;;;5030813;28;20079;-65
2023/03/27 02:28:22;;;;;;;4.93;2.95;;;;;;;;;;5034491;28;20568;-70
2023/03/27 02:30:56;;;;;;;4.72;3.08;;;;;;;;;;5035962;28;20261;-63
2023/03/27 02:33:26;;;;;;;4.55;3.05;;;;;;;;;;5031640;28;20044;-64
2023/03/27 02:36:10;;;;;;;4.20;3.13;;;;;;;;;;4996139;28;20044;-62
2023/03/27 02:38:40;;;;;;;5.15;3.20;;;;;;;;;;5037240;28;20086;-65
2023/03/27 02:41:15;;;;;;;4.53;3.25;;;;;;;;;;5029533;28;20053;-66
2023/03/27 02:43:43;;;;;;;4.05;2.85;;;;;;;;;;5029049;28;20056;-63
2023/03/27 02:46:13;;;;;;;4.88;3.15;;;;;;;;;;5028584;28;20041;-68
2023/03/27 02:48:45;;;;;;;4.85;3.50;;;;;;;;;;5006298;28;20086;-68
2023/03/27 02:51:26;;;;;;;4.65;3.20;;;;;;;;;;5001828;28;20716;-65
2023/03/27 02:53:53;;;;;;;4.55;2.90;;;;;;;;;;5029095;28;20505;-67
2023/03/27 02:56:18;;;;;;;4.53;3.00;;;;;;;;;;5004662;28;20044;-67
2023/03/27 02:58:44;;;;;;;4.57;3.20;;;;;;;;;;4997793;28;20045;-63
2023/03/27 03:01:09;;;;;;;3.70;2.63;;;;;;;;;;5029132;28;20052;-63
2023/03/27 03:03:41;;;;;;;4.40;3.17;;;;;;;;;;5028382;28;20287;-68
2023/03/27 03:06:06;;;;;;;4.15;3.15;;;;;;;;;;4999654;28;20167;-65
2023/03/27 03:08:37;;;;;;;4.57;3.08;;;;;;;;;;5028451;28;20767;-65
2023/03/27 03:11:02;;;;;;;;;;;;;;;;;;5006893;28;21561;-66
2023/03/27 03:13:27;;;;;;;4.63;3.20;;;;;;;;;;5028408;28;20428;-66
2023/03/27 03:15:52;;;;;;;4.97;3.30;;;;;;;;;;5029532;28;20045;-66
2023/03/27 03:18:18;;;;;;;4.53;3.20;;;;;;;;;;5010267;28;20117;-64
2023/03/27 03:20:44;;;;;;;4.50;3.10;;;;;;;;;;5028926;28;21449;-63
2023/03/27 03:23:10;;;;;;;5.15;3.08;;;;;;;;;;4988589;28;20862;-65
2023/03/27 03:25:35;;;;;;;5.68;3.05;;;;;;;;;;4998949;28;20786;-67
2023/03/27 03:28:00;;;;;;;5.03;3.38;;;;;;;;;;4994869;28;20044;-67
2023/03/27 03:30:26;;;;;;;4.50;3.17;;;;;;;;;;5029322;28;21731;-65
2023/03/27 03:32:53;;;;;;;4.40;3.17;;;;;;;;;;5029869;28;20203;-68
2023/03/27 03:35:20;;;;;;;4.20;3.03;;;;;;;;;;4993130;28;20357;-67
2023/03/27 03:37:47;;;;;;;4.45;3.00;;;;;;;;;;5026532;28;20133;-66
2023/03/27 03:40:12;;;;;;;4.05;3.00;;;;;;;;;;5006107;28;20252;-65
2023/03/27 03:42:44;;;;;;;4.50;3.03;;;;;;;;;;5026676;28;21683;-65
2023/03/27 03:45:10;;;;;;;4.18;3.08;;;;;;;;;;5029865;28;20346;-64
2023/03/27 03:47:35;;;;;;;4.03;3.30;;;;;;;;;;5028294;28;20451;-66
2023/03/27 03:50:00;;;;;;;4.13;3.00;;;;;;;;;;5029150;28;21033;-67
2023/03/27 03:52:26;;;;;;;4.60;3.10;;;;;;;;;;5028423;28;20685;-65
2023/03/27 03:54:51;;;;;;;4.57;3.00;;;;;;;;;;4999428;28;21064;-63
2023/03/27 03:57:17;;;;;;;4.40;3.00;;;;;;;;;;5018861;28;20051;-67
2023/03/27 03:59:42;;;;;;;4.15;2.88;;;;;;;;;;5001154;28;20063;-66
2023/03/27 04:02:10;;;;;;;4.70;3.27;;;;;;;;;;5017492;28;20057;-67
2023/03/27 04:04:36;;;;;;;4.00;3.05;;;;;;;;;;4984883;28;20396;-63
2023/03/27 04:07:01;;;;;;;4.30;3.17;;;;;;;;;;5019311;28;20433;-64
2023/03/27 04:09:27;;;;;;;4.70;3.38;;;;;;;;;;5019702;28;20489;-66
2023/03/27 04:11:52;;;;;;;5.00;3.30;;;;;;;;;;5000704;28;20167;-65
2023/03/27 04:14:17;;;;;;;4.90;3.40;;;;;;;;;;5020131;28;20853;-66
2023/03/27 04:16:42;;;;;;;3.97;3.03;;;;;;;;;;5001689;28;21668;-65
2023/03/27 04:19:08;;;;;;;5.05;3.10;;;;;;;;;;5019775;28;21683;-64
2023/03/27 04:21:33;;;;;;;4.13;2.77;;;;;;;;;;5019503;28;20800;-64
2023/03/27 04:24:01;;;;;;;3.85;3.13;;;;;;;;;;4999932;28;20801;-66
2023/03/27 04:26:26;;;;;;;5.05;3.28;;;;;;;;;;5020071;28;20040;-66
2023/03/27 04:28:53;;;;;;;5.90;3.35;;;;;;;;;;5001778;28;20107;-68
2023/03/27 04:31:18;;;;;;;7.55;3.08;;;;;;;;;;5019110;28;20033;-65
2023/03/27 04:33:45;;;;;;;7.90;3.00;;;;;;;;;;5019859;28;20185;-67
2023/03/27 04:36:13;;;;;;;6.47;3.60;;;;;;;;;;5019667;28;20041;-65
2023/03/27 04:38:39;;;;;;;7.18;3.35;;;;;;;;;;5003410;28;20033;-65
2023/03/27 04:41:05;;;;;;;7.03;3.03;;;;;;;;;;5021491;28;20385;-65
2023/03/27 04:43:30;;;;;;;6.50;3.35;;;;;;;;;;5022113;28;20519;-65
2023/03/27 04:45:55;;;;;;;5.57;3.70;;;;;;;;;;5003929;28;20043;-65
2023/03/27 04:48:21;;;;;;;7.00;3.40;;;;;;;;;;5011030;28;20569;-64
2023/03/27 04:50:49;;;;;;;6.15;3.17;;;;;;;;;;5026505;28;20429;-65
2023/03/27 04:53:15;;;;;;;8.45;3.60;;;;;;;;;;5023200;28;20611;-70
2023/03/27 04:55:41;;;;;;;7.38;3.40;;;;;;;;;;5029085;28;20129;-66
2023/03/27 04:58:07;;;;;;;10.73;3.60;;;;;;;;;;5028802;28;20213;-65
2023/03/27 05:00:32;;;;;;;9.10;3.80;;;;;;;;;;5027622;28;20612;-65
2023/03/27 05:02:59;;;;;;;5.85;3.30;;;;;;;;;;5004372;28;20467;-65
2023/03/27 05:05:25;;;;;;;8.98;3.20;;;;;;;;;;5028972;28;20131;-65
2023/03/27 05:07:50;;;;;;;8.40;3.60;;;;;;;;;;5027580;28;21741;-62
2023/03/27 05:10:16;;;;;;;7.40;3.40;;;;;;;;;;5026954;28;20149;-65
2023/03/27 05:12:50;;;;;;;7.57;3.63;;;;;;;;;;5028104;28;20044;-66
2023/03/27 05:15:16;;;;;;;10.20;3.58;;;;;;;;;;5029159;28;20052;-68
2023/03/27 05:17:44;;;;;;;7.43;3.40;;;;;;;;;;5028237;28;20040;-67
2023/03/27 05:20:13;;;;;;;8.27;3.13;;;;;;;;;;5027881;28;20071;-68
2023/03/27 05:22:39;;;;;;;7.57;3.42;;;;;;;;;;5026390;28;20074;-70
2023/03/27 05:25:05;;;;;;;7.03;3.40;;;;;;;;;;5024395;28;20036;-65
2023/03/27 05:27:30;;;;;;;7.32;3.33;;;;;;;;;;5025649;28;20037;-62
2023/03/27 05:29:56;;;;;;;8.77;3.60;;;;;;;;;;5004428;28;20043;-69
2023/03/27 05:32:21;;;;;;;5.38;2.67;;;;;;;;;;5026762;28;20451;-68
2023/03/27 05:34:49;;;;;;;7.70;3.42;;;;;;;;;;5027859;28;20529;-65
2023/03/27 05:37:15;;;;;;;7.05;3.40;;;;;;;;;;5026028;28;20434;-66
2023/03/27 05:39:40;;;;;;;7.18;3.20;;;;;;;;;;5023892;28;20754;-66
2023/03/27 05:42:05;;;;;;;7.10;3.10;;;;;;;;;;5019657;28;20064;-65
2023/03/27 05:44:31;;;;;;;6.55;3.10;;;;;;;;;;5027252;28;20190;-70
2023/03/27 05:46:56;;;;;;;6.38;3.13;;;;;;;;;;4986205;28;20049;-67
2023/03/27 05:49:22;;;;;;;7.68;3.58;;;;;;;;;;5025057;28;20048;-62
2023/03/27 05:51:47;;;;;;;9.45;3.38;;;;;;;;;;5026387;28;20124;-62
2023/03/27 05:54:12;;;;;;;5.80;3.17;;;;;;;;;;5022892;28;20056;-61
2023/03/27 05:56:39;;;;;;;5.78;3.17;;;;;;;;;;5024065;28;20290;-64
2023/03/27 05:59:05;;;;;;;6.18;2.78;;;;;;;;;;5033000;28;20134;-66
2023/03/27 06:01:33;;;;;;;5.95;3.42;;;;;;;;;;4995513;28;20428;-66
2023/03/27 06:03:59;;;;;;;8.05;3.30;;;;;;;;;;5025918;28;20044;-65
2023/03/27 06:06:25;;;;;;;5.77;3.33;;;;;;;;;;5025810;28;20117;-63
2023/03/27 06:08:50;;;;;;;7.45;3.45;;;;;;;;;;4996895;28;20302;-63
2023/03/27 06:11:15;;;;;;;5.78;3.20;;;;;;;;;;5025140;28;20881;-65
2023/03/27 06:13:41;;;;;;;7.67;3.43;;;;;;;;;;5025574;28;20073;-65
2023/03/27 06:16:06;;;;;;;7.05;3.63;;;;;;;;;;5024481;28;20340;-66
2023/03/27 06:18:32;;;;;;;5.30;3.25;;;;;;;;;;5026201;28;20036;-62
2023/03/27 06:20:57;;;;;;;7.50;3.28;;;;;;;;;;5024231;28;20670;-65
2023/03/27 06:23:23;;;;;;;4.97;2.90;;;;;;;;;;5024794;28;20131;-64
2023/03/27 06:25:48;;;;;;;8.80;3.05;;;;;;;;;;5022742;28;20226;-64
2023/03/27 06:28:13;;;;;;;7.88;3.10;;;;;;;;;;5025886;28;20036;-64
2023/03/27 06:30:38;;;;;;;6.03;2.70;;;;;;;;;;5025795;28;20049;-65
2023/03/27 06:33:04;;;;;;;6.60;2.78;;;;;;;;;;5005825;28;20052;-65
2023/03/27 06:35:30;;;;;;;7.25;3.47;;;;;;;;;;5027053;28;20112;-62
2023/03/27 06:37:57;;;;;;;7.63;2.90;;;;;;;;;;5026239;28;20036;-61
2023/03/27 06:40:23;;;;;;;6.13;3.00;;;;;;;;;;5030229;28;20158;-63
2023/03/27 06:42:51;;;;;;;5.78;3.20;;;;;;;;;;5027107;28;20361;-62
2023/03/27 06:45:16;;;;;;;8.68;3.00;;;;;;;;;;5028926;28;20058;-63
2023/03/27 06:47:54;;;;;;;5.18;3.08;;;;;;;;;;5028913;28;20036;-66
2023/03/27 06:50:20;;;;;;;6.93;3.17;;;;;;;;;;5004540;28;20255;-65
2023/03/27 06:52:47;;;;;;;5.57;3.38;;;;;;;;;;4992776;28;20257;-66
2023/03/27 06:55:12;;;;;;;5.05;3.10;;;;;;;;;;4994949;28;20147;-65
2023/03/27 06:57:44;;;;;;;6.60;3.35;;;;;;;;;;5006438;28;21183;-64
2023/03/27 07:00:18;;;;;;;4.90;3.22;;;;;;;;;;5030385;28;20513;-63
2023/03/27 07:02:43;;;;;;;5.55;3.08;;;;;;;;;;5006547;28;20048;-63
2023/03/27 07:05:09;;;;;;;6.28;3.30;;;;;;;;;;5028867;28;20705;-67
2023/03/27 07:07:35;;;;;;;5.88;3.05;;;;;;;;;;5028441;28;20300;-63
2023/03/27 07:10:00;;;;;;;5.38;2.97;;;;;;;;;;5004845;28;20698;-63
2023/03/27 07:12:25;;;;;;;6.50;3.13;;;;;;;;;;5028279;28;20066;-64
2023/03/27 07:14:51;;;;;;;5.32;3.17;;;;;;;;;;5029319;28;20037;-63
2023/03/27 07:17:16;;;;;;;6.15;3.00;;;;;;;;;;5025298;28;20032;-65
2023/03/27 07:19:41;;;;;;;7.85;3.70;;;;;;;;;;5021464;28;20040;-64
2023/03/27 07:22:06;;;;;;;6.77;3.30;;;;;;;;;;4999068;28;20138;-63
2023/03/27 07:24:32;;;;;;;4.78;2.88;;;;;;;;;;5021990;28;20389;-63
2023/03/27 07:26:57;;;;;;;7.05;3.22;;;;;;;;;;5021275;28;20659;-63
2023/03/27 07:29:22;;;;;;;5.13;2.80;;;;;;;;;;5022259;28;20666;-62
2023/03/27 07:31:48;;;;;;;6.60;3.30;;;;;;;;;;5024206;28;20837;-60
2023/03/27 07:34:13;;;;;;;6.07;3.20;;;;;;;;;;5026651;28;20572;-60
2023/03/27 07:36:38;;;;;;;6.53;3.23;;;;;;;;;;5027021;28;20068;-63
2023/03/27 07:39:03;;;;;;;5.70;3.13;;;;;;;;;;5028642;28;20295;-60
2023/03/27 07:41:29;;;;;;;6.55;3.03;;;;;;;;;;5028392;28;20111;-66
2023/03/27 07:43:55;;;;;;;4.47;2.83;;;;;;;;;;5028421;28;20048;-61
2023/03/27 07:46:22;;;;;;;5.80;3.38;;;;;;;;;;5004723;28;20607;-61
2023/03/27 07:48:48;;;;;;;5.00;2.90;;;;;;;;;;5007079;28;20702;-65
2023/03/27 07:51:13;;;;;;;4.73;2.90;;;;;;;;;;5028342;28;20406;-66
2023/03/27 07:53:38;;;;;;;5.87;2.63;;;;;;;;;;5028027;28;21633;-65
2023/03/27 07:56:04;;;;;;;5.93;2.38;;;;;;;;;;5026962;28;20218;-61
2023/03/27 07:58:29;;;;;;;5.68;2.95;;;;;;;;;;5028504;28;20061;-63
2023/03/27 08:00:57;;;;;;;6.38;3.05;;;;;;;;;;5027641;28;20072;-62
2023/03/27 08:03:24;;;;;;;4.18;2.58;;;;;;;;;;5027717;28;20040;-63
2023/03/27 08:05:53;;;;;;;4.93;2.88;;;;;;;;;;5027671;28;20037;-64
2023/03/27 08:08:18;;;;;;;5.72;2.65;;;;;;;;;;5027391;28;20032;-63
2023/03/27 08:10:44;;;;;;;4.25;2.53;;;;;;;;;;5027865;28;20040;-62
2023/03/27 08:13:11;;;;;;;4.90;2.63;;;;;;;;;;5027291;28;20532;-63
2023/03/27 08:15:36;;;;;;;4.65;2.63;;;;;;;;;;5027661;28;20334;-61
2023/03/27 08:18:01;;;;;;;5.40;3.00;;;;;;;;;;5003735;28;20052;-62
2023/03/27 08:20:29;;;;;;;4.38;3.03;;;;;;;;;;5026900;28;20149;-64
2023/03/27 08:22:54;;;;;;;4.78;2.65;;;;;;;;;;5025754;28;20056;-65
2023/03/27 08:25:21;;;;;;;4.00;2.53;;;;;;;;;;5028752;28;20814;-64
2023/03/27 08:27:46;;;;;;;4.63;2.83;;;;;;;;;;5025651;28;20036;-61
2023/03/27 08:30:13;;;;;;;5.60;3.10;;;;;;;;;;5026739;28;20047;-60
2023/03/27 08:32:39;;;;;;;4.80;2.85;;;;;;;;;;5026318;28;20043;-65
2023/03/27 08:35:06;;;;;;;3.95;2.70;;;;;;;;;;5027536;28;20032;-63
2023/03/27 08:37:31;;;;;;;4.20;2.80;;;;;;;;;;5026280;28;20032;-61
2023/03/27 08:39:57;;;;;;;4.75;2.63;;;;;;;;;;5027815;28;20040;-63
2023/03/27 08:42:26;;;;;;;4.38;2.50;;;;;;;;;;5026234;28;20053;-64
2023/03/27 08:44:53;;;;;;;3.83;2.40;;;;;;;;;;5026810;28;20364;-64
2023/03/27 08:47:18;;;;;;;4.00;2.67;;;;;;;;;;5004306;28;20136;-64
2023/03/27 08:49:46;;;;;;;5.33;2.87;;;;;;;;;;5005777;28;20044;-62
2023/03/27 08:52:15;;;;;;;5.45;2.60;;;;;;;;;;5003503;28;20048;-60
2023/03/27 08:54:41;;;;;;;5.13;2.50;;;;;;;;;;4995471;28;20049;-65
2023/03/27 08:57:20;;;;;;;5.13;2.60;;;;;;;;;;4994851;28;20157;-62
2023/03/27 08:59:46;;;;;;;4.68;2.72;;;;;;;;;;4994421;28;21125;-65
2023/03/27 09:02:17;;;;;;;3.65;2.45;;;;;;;;;;5008159;28;20143;-64
2023/03/27 09:04:42;;;;;;;4.53;2.50;;;;;;;;;;5009705;28;20045;-63
2023/03/27 09:07:12;;;;;;;4.05;2.70;;;;;;;;;;5010171;28;20260;-63
2023/03/27 09:09:38;;;;;;;4.82;2.65;;;;;;;;;;4995531;28;20044;-63
2023/03/27 09:12:12;;;;;;;4.82;2.50;;;;;;;;;;5009936;28;20055;-63
2023/03/27 09:14:42;;;;;;;4.35;2.60;;;;;;;;;;5009066;28;20059;-64
2023/03/27 09:17:13;;;;;;;4.43;3.17;;;;;;;;;;5009188;28;20843;-64
2023/03/27 09:19:44;;;;;;;5.53;2.50;;;;;;;;;;5007816;28;20040;-59
2023/03/27 09:22:09;;;;;;;3.25;2.45;;;;;;;;;;5009569;28;20533;-62
2023/03/27 09:24:38;;;;;;;4.47;2.70;;;;;;;;;;5008617;28;20061;-64
2023/03/27 09:27:10;;;;;;;3.63;2.53;;;;;;;;;;5009798;28;21725;-63
2023/03/27 09:29:36;;;;;;;4.53;2.40;;;;;;;;;;4987270;28;20961;-64
2023/03/27 09:32:02;;;;;;;4.03;2.17;;;;;;;;;;5002663;28;20036;-63
2023/03/27 09:34:29;;;;;;;3.58;2.35;;;;;;;;;;4970602;28;20078;-63
2023/03/27 09:36:54;;;;;;;3.38;2.35;;;;;;;;;;4990900;28;20083;-63
2023/03/27 09:39:26;;;;;;;3.53;2.20;;;;;;;;;;4987337;28;21943;-63
2023/03/27 09:41:58;;;;;;;3.95;2.35;;;;;;;;;;4987057;28;20781;-63
2023/03/27 09:44:27;;;;;;;4.43;2.45;;;;;;;;;;4999693;28;21268;-63
2023/03/27 09:47:11;;;;;;;4.78;2.80;;;;;;;;;;4984825;28;20037;-62
2023/03/27 09:49:37;;;;;;;3.60;2.17;;;;;;;;;;5002472;28;20049;-62
2023/03/27 09:52:04;;;;;;;3.38;2.15;;;;;;;;;;5007482;28;20624;-66
2023/03/27 09:54:30;;;;;;;4.05;2.50;;;;;;;;;;4992688;28;20577;-63
2023/03/27 09:57:03;;;;;;;3.08;1.92;;;;;;;;;;4978247;28;20641;-62
2023/03/27 09:59:36;;;;;;;4.35;2.30;;;;;;;;;;5005306;28;20103;-63
2023/03/27 10:02:22;;;;;;;3.63;2.30;;;;;;;;;;5008669;28;20102;-63
2023/03/27 10:04:59;;;;;;;3.13;2.20;;;;;;;;;;5008862;28;20037;-63
2023/03/27 10:07:25;;;;;;;3.35;2.08;;;;;;;;;;5008038;28;20143;-63
2023/03/27 10:10:19;;;;;;;3.40;2.03;;;;;;;;;;5008724;28;20051;-64
2023/03/27 10:12:46;;;;;;;4.00;2.20;;;;;;;;;;4989756;28;20052;-62
2023/03/27 10:15:31;;;;;;;3.70;2.47;;;;;;;;;;4998521;28;20064;-63
2023/03/27 10:17:57;;;;;;;3.33;2.20;;;;;;;;;;4997879;28;20072;-64
2023/03/27 10:20:23;;;;;;;2.83;1.88;;;;;;;;;;4998077;28;20102;-63
2023/03/27 10:23:01;;;;;;;4.68;2.20;;;;;;;;;;4981430;28;20092;-64
2023/03/27 10:25:31;;;;;;;3.95;2.30;;;;;;;;;;4997858;28;20045;-61
2023/03/27 10:28:14;;;;;;;2.55;2.03;;;;;;;;;;4997594;28;20051;-64
2023/03/27 10:30:40;;;;;;;3.38;2.00;;;;;;;;;;4997647;28;20041;-62
2023/03/27 10:33:06;;;;;;;3.90;2.30;;;;;;;;;;5012125;28;20045;-62
2023/03/27 10:35:31;;;;;;;3.38;2.20;;;;;;;;;;5011406;28;20110;-63
2023/03/27 10:37:56;;;;;;;4.77;2.17;;;;;;;;;;5010268;28;20045;-62
2023/03/27 10:40:34;;;;;;;2.83;2.10;;;;;;;;;;5012356;28;21399;-64
2023/03/27 10:43:01;;;;;;;4.38;2.30;;;;;;;;;;4996985;28;20053;-62
2023/03/27 10:45:27;;;;;;;3.22;2.30;;;;;;;;;;4998096;28;20513;-62
2023/03/27 10:47:53;;;;;;;3.47;2.30;;;;;;;;;;4997888;28;20102;-65
2023/03/27 10:50:20;;;;;;;5.00;2.20;;;;;;;;;;4994952;28;20124;-62
2023/03/27 10:52:54;;;;;;;3.45;2.13;;;;;;;;;;4997964;28;20048;-61
2023/03/27 10:55:23;;;;;;;4.72;3.75;;;;;;;;;;5003782;28;20469;-65
2023/03/27 10:57:50;;;;;;;3.72;2.10;;;;;;;;;;5029853;28;20107;-62
2023/03/27 11:00:36;;;;;;;4.55;3.28;;;;;;;;;;5006276;28;20036;-63
2023/03/27 11:03:08;;;;;;;3.55;2.13;;;;;;;;;;5025672;28;20053;-64
2023/03/27 11:05:41;;;;;;;2.70;1.90;;;;;;;;;;5028066;28;20131;-62
2023/03/27 11:08:09;;;;;;;3.30;2.20;;;;;;;;;;5005080;28;20056;-64
2023/03/27 11:10:41;;;;;;;2.65;1.98;;;;;;;;;;5006813;28;20044;-62
2023/03/27 11:13:15;;;;;;;3.05;2.20;;;;;;;;;;5029071;28;20032;-66
2023/03/27 11:15:42;;;;;;;3.42;2.20;;;;;;;;;;5029661;28;20167;-66
2023/03/27 11:18:16;;;;;;;4.25;2.08;;;;;;;;;;5029340;28;20126;-65
2023/03/27 11:20:43;;;;;;;3.90;2.08;;;;;;;;;;5005755;28;20033;-65
2023/03/27 11:23:29;;;;;;;3.13;2.00;;;;;;;;;;5004953;28;20048;-67
2023/03/27 11:25:54;;;;;;;2.35;1.67;;;;;;;;;;5026782;28;20172;-66
2023/03/27 11:28:20;;;;;;;5.55;1.92;;;;;;;;;;5003997;28;20728;-66
2023/03/27 11:30:56;;;;;;;3.83;2.10;;;;;;;;;;5028338;28;21347;-67
2023/03/27 11:33:23;;;;;;;2.95;1.83;;;;;;;;;;5029364;28;20364;-66
2023/03/27 11:35:52;;;;;;;2.75;1.90;;;;;;;;;;5028584;28;20177;-67
2023/03/27 11:38:18;;;;;;;3.90;2.17;;;;;;;;;;5028568;28;20040;-65
2023/03/27 11:40:44;;;;;;;2.95;1.85;;;;;;;;;;5005526;28;21957;-65
2023/03/27 11:43:10;;;;;;;4.47;2.08;;;;;;;;;;5006590;28;21582;-64
2023/03/27 11:45:38;;;;;;;3.42;1.80;;;;;;;;;;5029869;28;20046;-64
2023/03/27 11:48:11;;;;;;;2.92;1.90;;;;;;;;;;5028731;28;20040;-63
2023/03/27 11:50:42;;;;;;;3.83;1.88;;;;;;;;;;5004482;28;20048;-63
2023/03/27 11:53:26;;;;;;;2.92;1.98;;;;;;;;;;5026718;28;20068;-64
2023/03/27 11:55:58;;;;;;;2.85;1.90;;;;;;;;;;5027384;28;20049;-65
2023/03/27 11:58:31;;;;;;;3.17;1.73;;;;;;;;;;5027933;28;20043;-64
2023/03/27 12:01:11;;;;;;;2.97;2.00;;;;;;;;;;5027726;28;20064;-62
2023/03/27 12:03:56;;;;;;;3.40;2.00;;;;;;;;;;5003878;28;20040;-64
2023/03/27 12:06:21;;;;;;;4.15;1.90;;;;;;;;;;5034208;28;20574;-67
2023/03/27 12:09:22;;;;;;;2.63;1.80;;;;;;;;;;4990350;28;20041;-69
2023/03/27 12:16:04;;;;;;;3.08;1.98;;;;;;;;;;5002533;28;20106;-70
2023/03/27 12:19:34;;;;;;;2.90;1.90;;;;;;;;;;4955357;28;20027;-69
2023/03/27 12:22:50;;;;;;;2.75;1.80;;;;;;;;;;5011851;28;20041;-66
2023/03/27 12:26:07;;;;;;;2.88;1.70;;;;;;;;;;4991815;28;20727;-62
2023/03/27 12:29:25;;;;;;;1.95;1.33;;;;;;;;;;4998175;28;20025;-69
2023/03/27 12:39:13;;;;;;;3.33;1.70;;;;;;;;;;4994584;28;20095;-70
2023/03/27 12:46:06;;;;;;;2.95;1.60;;;;;;;;;;5016062;28;20071;-70
2023/03/27 12:49:25;;;;;;;3.30;1.70;;;;;;;;;;5028603;28;20245;-71
2023/03/27 14:06:58;;;;;;;3.25;1.52;;;;;;;;;;5012584;28;20079;-66
2023/03/27 14:20:33;;;;;;;2.63;1.38;;;;;;;;;;5042901;28;20052;-64
2023/03/27 14:24:02;;;;;;;2.63;1.48;;;;;;;;;;5049976;28;20568;-66
2023/03/27 14:27:34;;;;;;;2.50;1.27;;;;;;;;;;5035756;28;20484;-66
2023/03/27 14:31:07;;;;;;;2.67;1.30;;;;;;;;;;5009446;28;20144;-62
2023/03/27 14:34:38;;;;;;;2.58;1.38;;;;;;;;;;5010105;28;20047;-67
2023/03/27 14:38:10;;;;;;;2.65;1.23;;;;;;;;;;5000360;28;20044;-68
2023/03/27 14:41:42;;;;;;;1.80;1.08;;;;;;;;;;4998162;28;20251;-61
2023/03/27 14:45:14;;;;;;;3.25;1.23;;;;;;;;;;5030519;28;20045;-65
2023/03/27 14:48:46;;;;;;;2.58;1.40;;;;;;;;;;4982143;28;20030;-61
2023/03/27 14:52:16;;;;;;;2.85;1.40;;;;;;;;;;5045826;28;20032;-65
2023/03/27 14:55:38;;;;;;;2.60;1.33;;;;;;;;;;5007190;28;20026;-64
2023/03/27 14:59:11;;;;;;;2.85;1.17;;;;;;;;;;5013014;28;20025;-67
2023/03/27 15:05:55;;;;;;;2.67;1.20;;;;;;;;;;4990203;28;20056;-67
2023/03/27 15:09:22;;;;;;;2.20;1.35;;;;;;;;;;4980650;28;20187;-58
2023/03/27 15:12:12;;;;;;;;;;;;;;;;;;5049104;28;20269;-60
2023/03/27 15:19:03;;;;;;;4.97;1.45;;;;;;;;;;4992972;28;20047;-66
2023/03/27 15:22:32;;;;;;;2.63;1.17;;;;;;;;;;5025385;28;20041;-66
2023/03/27 15:26:01;;;;;;;2.10;1.00;;;;;;;;;;5066333;28;20481;-67
2023/03/27 15:29:37;;;;;;;1.77;0.98;;;;;;;;;;5011785;28;20140;-67
2023/03/27 15:33:06;;;;;;;1.75;1.08;;;;;;;;;;5003677;28;20247;-68
2023/03/27 15:35:52;;;;;;;2.85;1.40;;;;;;;;;;5032171;22;20046;-76
2023/03/27 15:38:27;;;;;;;2.63;1.30;;;;;;;;;;5013782;28;20033;-78
2023/03/27 15:41:13;;;;;;;2.30;1.00;;;;;;;;;;5013498;28;20098;-76
2023/03/27 15:43:38;;;;;;;2.45;1.10;;;;;;;;;;5024184;28;20041;-73
2023/03/27 15:46:16;;;;;;;1.93;1.20;;;;;;;;;;5032933;28;20037;-77
2023/03/27 15:48:44;;;;;;;2.38;1.48;;;;;;;;;;5019457;28;20280;-75
2023/03/27 15:51:28;;;;;;;2.42;1.40;;;;;;;;;;5039730;28;20095;-75
2023/03/27 15:53:54;;;;;;;2.38;1.13;;;;;;;;;;5050366;28;20071;-75
2023/03/27 15:56:20;;;;;;;1.75;1.10;;;;;;;;;;4998549;28;20045;-76
2023/03/27 15:58:46;;;;;;;2.53;1.30;;;;;;;;;;5035556;28;20041;-73
2023/03/27 16:01:14;;;;;;;2.55;1.20;;;;;;;;;;5048768;28;20037;-76
2023/03/27 16:03:40;;;;;;;2.85;1.35;;;;;;;;;;5034781;28;20036;-72
2023/03/27 16:06:05;;;;;;;2.13;1.20;;;;;;;;;;5000241;28;20021;-71
2023/03/27 16:08:32;;;;;;;2.70;1.25;;;;;;;;;;5020544;28;20041;-71
2023/03/27 16:10:57;;;;;;;2.28;1.20;;;;;;;;;;5023133;28;20024;-72
2023/03/27 16:13:26;;;;;;;2.88;1.27;;;;;;;;;;5034753;28;20044;-73
2023/03/27 16:15:55;;;;;;;2.47;1.17;;;;;;;;;;5033091;28;20099;-74
2023/03/27 16:18:25;;;;;;;4.00;1.38;;;;;;;;;;5043331;28;20013;-73
2023/03/27 16:20:50;;;;;;;2.67;1.20;;;;;;;;;;5011150;28;20021;-74
2023/03/27 16:23:16;;;;;;;3.10;1.40;;;;;;;;;;5043854;28;20021;-74
2023/03/27 16:25:41;;;;;;;2.88;1.30;;;;;;;;;;5045588;28;20032;-75
2023/03/27 16:28:07;;;;;;;4.20;1.23;;;;;;;;;;5033981;28;20432;-74
2023/03/27 16:30:37;;;;;;;2.53;1.13;;;;;;;;;;5027265;28;20022;-74
2023/03/27 16:33:07;;;;;;;2.72;1.00;;;;;;;;;;5034243;28;20115;-73
2023/03/27 16:35:33;;;;;;;2.78;1.20;;;;;;;;;;5028806;28;20489;-74
2023/03/27 16:37:58;;;;;;;1.97;1.13;;;;;;;;;;5047381;28;20116;-74
2023/03/27 16:40:23;;;;;;;3.08;1.33;;;;;;;;;;5027890;28;20275;-72
2023/03/27 16:42:49;;;;;;;2.22;1.15;;;;;;;;;;5037422;28;20601;-71
2023/03/27 16:45:14;;;;;;;2.65;1.50;;;;;;;;;;5035348;28;20128;-72
2023/03/27 16:47:45;;;;;;;2.78;1.50;;;;;;;;;;5037903;28;20033;-77
2023/03/27 16:50:20;;;;;;;3.13;1.40;;;;;;;;;;5015536;28;20032;-71
2023/03/27 16:52:45;;;;;;;3.28;1.60;;;;;;;;;;5030521;28;20044;-71
2023/03/27 16:55:12;;;;;;;2.70;1.40;;;;;;;;;;5033846;28;20034;-70
2023/03/27 16:57:37;;;;;;;1.88;1.25;;;;;;;;;;5031922;28;20291;-71
2023/03/27 17:00:04;;;;;;;2.13;1.13;;;;;;;;;;5031349;28;20037;-72
2023/03/27 17:02:29;;;;;;;2.88;1.30;;;;;;;;;;5026568;28;20124;-72